Aeroporto :
LOGIN :

Iscrizione | Disclaimer

   EN    FR    IT 

 










Sommario :    VFR   VFR Marginale   IFR   IFR Intensivo   IFR Molto Intensivo
Visibilità : 
Base nubi : 
>= 8 km
>= 3000ft
5 / 8 km
1000 / 3000 ft
1500m / 5 km
500 / 1000 ft
800 / 1500m
200 / 500 ft
< 800m
< 200 ft
Simboli :   Temporali  Nebbia  Neve Forte  Precipitazioni Forti  Vento > 20 kt
SIGMETs :   Varie  Temporali  Ghiacco  Turbolenza  Onda orograficha  Ceneri Vulcaniche






- Altitudine del aeroporto : 141 ft
- Codice IATA : SKS


EKSP - Srydstrup Vojens

ULTIMO METAR :
  • 261820Z 27007KT 9999 FEW025 BKN200 14/09 Q1034

METARs OBSOLETI :
  • 261750Z 29008KT 9999 FEW025 BKN200 15/09 Q1034
  • 261720Z 27008KT 9999 FEW025 BKN200 15/09 Q1034
  • 261650Z 29010KT 9999 FEW025 BKN200 16/09 Q1034
  • 261620Z 28009KT 250V320 9999 FEW028 BKN200 16/10 Q1034
  • 261550Z 27010KT 9999 FEW028 BKN200 17/11 Q1034

TAF TAF EKSP
Valido dal 26 a 18 ore il 27 a 18 ore UTC


261719Z 2618/2718 23007KT 9999 FEW035
TEMPO 2700/2706 5000 BR
BECMG 2708/2710 32012KT



MetMap, La meteo Aeronautica in un colpo d'occhio ! - Copyright ORBIFLY Dicembre 2007 - Disclaimer

ORBIFLY MET'MAP TEAM :

Programmazione e sviluppo : Alexandra Zaïnal
Concezione : Baudouin d'Aumeries
Aiuto per la programmazione : Marc-Olivier Méhu
Supporto tecnico e logistico : Manuel Goepfert
Aiuto per la traduzione : Arnaldo La Scala

Contatto : metmap@orbifly.com




FONTI E CREDITI :

   NOAA